Flight Track Log - Related Links

Times and Time Zones

All times are in EDT time to prevent confusion due to time zone crossing. See the XOJ549 flight status page for this flight to view local times or setup timezone preferences in your user account.

Time Position Orientation Groundspeed Altitude Reporting Facility
EDT Latitude Longitude Course Direction KTS MPH feet Rate Location/Type
Sun 04:50:03 PM 33.5775 -117.9128 195° South 209 241 6,400  Level Los Angeles Center
Sun 04:51:06 PM 33.5417 -117.9911 241° Southwest 270 311 10,300 3,648 Climbing Los Angeles Center
Sun 04:52:08 PM 33.6069 -118.0553 321° Northwest 319 367 14,000 3,339 Climbing Los Angeles Center
Sun 04:53:10 PM 33.7089 -118.0556 360° North 367 422 17,200 3,290 Climbing Los Angeles Center
Sun 04:54:12 PM 33.8122 -118.0283 12° North 400 460 20,800 3,242 Climbing Los Angeles Center
Sun 04:55:14 PM 33.9203 -117.9308 37° Northeast 407 468 23,900 2,855 Climbing Los Angeles Center
Sun 04:56:16 PM 34.0150 -117.8469 36° Northeast 421 484 26,700 2,516 Climbing Los Angeles Center
Sun 04:57:18 PM 34.1053 -117.7536 41° Northeast 428 493 29,100 2,274 Climbing Los Angeles Center
Sun 04:58:20 PM 34.1836 -117.6456 49° Northeast 430 495 31,400 2,032 Climbing Los Angeles Center
Sun 04:59:22 PM 34.2658 -117.5356 48° Northeast 439 505 33,300 1,597 Climbing Los Angeles Center
Sun 05:00:24 PM 34.3689 -117.3964 48° Northeast 462 532 34,700 1,296 Climbing Los Angeles Center
Sun 05:01:27 PM 34.4603 -117.2700 49° Northeast 481 554 36,000 1,065 Climbing Los Angeles Center
Sun 05:02:28 PM 34.5325 -117.1717 48° Northeast 490 564 36,900 1,113 Climbing Los Angeles Center
Sun 05:03:31 PM 34.6417 -117.0211 49° Northeast 498 573 38,300 1,008 Climbing Los Angeles Center
Sun 05:04:33 PM 34.7328 -116.8947 49° Northeast 499 574 39,000 339 Climbing Los Angeles Center
Sun 05:05:35 PM 34.8239 -116.7689 49° Northeast 499 574 39,000 97 Level Los Angeles Center
Sun 05:06:37 PM 34.9322 -116.6161 49° Northeast 499 574 39,200 677 Climbing Los Angeles Center
Sun 05:07:39 PM 35.0261 -116.4928 47° Northeast 500 575 40,400 871 Climbing Los Angeles Center
Sun 05:08:41 PM 35.1225 -116.3750 45° Northeast 495 570 41,000 290 Climbing Los Angeles Center
Sun 05:09:43 PM 35.2203 -116.2550 45° Northeast 495 570 41,000  Level Los Angeles Center
Sun 05:10:57 PM 35.3161 -116.1328 46° Northeast 498 573 41,000  Level Los Angeles Center
Sun 05:12:00 PM 35.4522 -115.9594 46° Northeast 503 579 41,000  Level Los Angeles Center
Sun 05:13:02 PM 35.5417 -115.8489 45° Northeast 503 579 41,000  Level Los Angeles Center
Sun 05:14:04 PM 35.6583 -115.7022 46° Northeast 500 575 41,000  Level Los Angeles Center
Sun 05:15:06 PM 35.7544 -115.5775 46° Northeast 503 579 41,000  Level Los Angeles Center
Sun 05:16:08 PM 35.8508 -115.4547 46° Northeast 502 578 41,000  Level Los Angeles Center
Sun 05:17:22 PM 35.9464 -115.3319 46° Northeast 500 575 41,000  Level Los Angeles Center
Sun 05:18:37 PM 36.0586 -115.1850 47° Northeast 494 568 41,000  Level Los Angeles Center
Sun 05:19:40 PM 36.1942 -115.0144 45° Northeast 501 577 41,000  Level Los Angeles Center
Sun 05:20:42 PM 36.2908 -114.8922 46° Northeast 501 577 41,000  Level Los Angeles Center
Sun 05:21:44 PM 36.3867 -114.7694 46° Northeast 499 574 41,000  Level Los Angeles Center
Sun 05:22:46 PM 36.4822 -114.6442 46° Northeast 501 577 41,000  Level Los Angeles Center
Sun 05:23:48 PM 36.5769 -114.5192 47° Northeast 499 574 41,000  Level Los Angeles Center
Sun 05:24:50 PM 36.6922 -114.3694 46° Northeast 500 575 41,000  Level Los Angeles Center
Sun 05:25:52 PM 36.7808 -114.2358 50° Northeast 499 574 41,000  Level Los Angeles Center
Sun 05:26:54 PM 36.8514 -114.0878 59° Northeast 497 572 41,000  Level Los Angeles Center
Sun 05:27:56 PM 36.9225 -113.9400 59° Northeast 498 573 41,000  Level Los Angeles Center
Sun 05:28:59 PM 36.9994 -113.7822 59° Northeast 498 573 41,000  Level Los Angeles Center
Sun 05:30:01 PM 37.0694 -113.6339 59° Northeast 497 572 41,000  Level Los Angeles Center
Sun 05:31:03 PM 37.1397 -113.4853 59° Northeast 497 572 41,000  Level Los Angeles Center
Sun 05:31:47 PM 37.1956 -113.3678 59° Northeast 497 572 41,000  Level Salt Lake Center
Sun 05:32:49 PM 37.2650 -113.2194 59° Northeast 496 571 41,000  Level Salt Lake Center
Sun 05:33:51 PM 37.3347 -113.0703 60° Northeast 498 573 41,000  Level Salt Lake Center
Sun 05:34:53 PM 37.4169 -112.8919 60° Northeast 498 573 41,000  Level Salt Lake Center
Sun 05:35:55 PM 37.4861 -112.7461 59° Northeast 499 574 41,000  Level Salt Lake Center
Sun 05:36:56 PM 37.5544 -112.5994 60° Northeast 498 573 41,000  Level Salt Lake Center
Sun 05:37:58 PM 37.6231 -112.4514 60° Northeast 496 571 41,000  Level Salt Lake Center
Sun 05:39:00 PM 37.7056 -112.2725 60° Northeast 495 570 41,000  Level Salt Lake Center
Sun 05:40:02 PM 37.7744 -112.1231 60° Northeast 494 568 41,000  Level Salt Lake Center
Sun 05:41:04 PM 37.8439 -111.9728 60° Northeast 496 571 41,000  Level Salt Lake Center
Sun 05:42:05 PM 37.9133 -111.8231 60° Northeast 495 570 41,000  Level Salt Lake Center
Sun 05:43:07 PM 37.9828 -111.6736 59° Northeast 495 570 41,000  Level Salt Lake Center
Sun 05:44:09 PM 38.0508 -111.5217 60° Northeast 495 570 41,000  Level Salt Lake Center
Sun 05:45:11 PM 38.1194 -111.3722 60° Northeast 492 566 41,000  Level Salt Lake Center
Sun 05:46:13 PM 38.2019 -111.1897 60° Northeast 498 573 41,000  Level Salt Lake Center
Sun 05:47:15 PM 38.2694 -111.0392 60° Northeast 493 567 41,000  Level Salt Lake Center
Sun 05:48:16 PM 38.3314 -110.8986 61° Northeast 492 566 41,000  Level Salt Lake Center
Sun 05:49:11 PM 38.3936 -110.7511 62° Northeast 493 567 41,000  Level Denver Center
Sun 05:50:13 PM 38.4594 -110.5758 64° Northeast 492 566 41,000  Level Denver Center
Sun 05:51:15 PM 38.5128 -110.4231 66° East 494 568 41,000  Level Denver Center
Sun 05:52:17 PM 38.5747 -110.2450 66° East 491 565 41,000  Level Denver Center
Sun 05:53:25 PM 38.6361 -110.0692 66° East 489 563 41,000  Level Salt Lake Center
Sun 05:54:27 PM 38.6878 -109.9167 66° East 488 562 41,000  Level Salt Lake Center
Sun 05:55:22 PM 38.7378 -109.7617 67° East 491 565 41,000  Level Denver Center
Sun 05:56:24 PM 38.7897 -109.6089 66° East 489 563 41,000  Level Denver Center
Sun 05:57:26 PM 38.8489 -109.4278 67° East 490 564 41,000  Level Denver Center
Sun 05:58:28 PM 38.9000 -109.2739 67° East 491 565 41,000  Level Denver Center
Sun 05:59:29 PM 38.9603 -109.0931 67° East 494 568 41,000  Level Denver Center
Sun 06:00:31 PM 39.0114 -108.9400 67° East 491 565 41,000  Level Denver Center
Sun 06:01:33 PM 39.0725 -108.7617 66° East 490 564 41,000 -242 Level Denver Center
Sun 06:02:35 PM 39.1381 -108.6164 60° Northeast 493 567 40,500 -1,161 Descending Denver Center
Sun 06:03:37 PM 39.2139 -108.4464 60° Northeast 493 567 38,600 -1,694 Descending Denver Center
Sun 06:04:39 PM 39.2803 -108.3053 59° Northeast 481 554 37,000 -1,415 Descending Denver Center
Sun 06:05:40 PM 39.3422 -108.1914 55° Northeast 485 558 35,700 -1,268 Descending Denver Center
Sun 06:06:42 PM 39.4392 -108.0092 55° Northeast 482 555 34,400 -1,161 Descending Denver Center
Sun 06:07:44 PM 39.5233 -107.8469 56° Northeast 487 560 33,300 -1,210 Descending Denver Center
Sun 06:08:46 PM 39.5981 -107.7031 56° Northeast 499 574 31,900 -1,500 Descending Denver Center
Sun 06:09:48 PM 39.6869 -107.5347 46° Northeast 506 582 30,200 -1,500 Descending Denver Center
Sun 06:10:00 PM 39.6828 -107.5285 46° Northeast  Level FlightAware Approximate
Sun 06:10:50 PM 39.7611 -107.3911 56° Northeast 502 578 28,800  Level Denver Center
Sun 06:11:52 PM 39.8333 -107.2522 56° Northeast 488 562 27,300 -1,452 Descending Denver Center
Sun 06:12:54 PM 39.9028 -107.1158 56° Northeast 461 531 25,800 -1,610 Descending Denver Center
Sun 06:13:55 PM 39.9156 -106.9661 84° East 429 494 24,000 -2,390 Descending Denver Center
Sun 06:14:57 PM 39.8797 -106.8317 109° East 396 456 20,900 -3,290 Descending Denver Center
Sun 06:15:59 PM 39.8350 -106.6869 112° Southeast 362 417 17,200 -3,242 Descending Denver Center
Sun 06:17:01 PM 39.7958 -106.5742 114° Southeast 350 403 14,200 -1,742 Descending Denver Center
Sun 06:18:03 PM 39.7214 -106.5597 172° South 293 337 13,600 -1,161 Descending Denver Center
Sun 06:19:05 PM 39.6842 -106.6319 236° Southwest 252 290 11,800 -1,790 Descending Denver Center
Sun 06:20:07 PM 39.6717 -106.7169 259° West 242 278 9,900 -1,597 Descending Denver Center
Sun 06:21:09 PM 39.6608 -106.7881 259° West 206 237 8,500 -1,161 Descending Denver Center
Sun 06:22:11 PM 39.6500 -106.8450 256° West 176 203 7,500 -927 Descending Denver Center
Sun 06:23:12 PM 39.6439 -106.8944 261° West 156 180 6,600 -885 Descending Denver Center

Login

Don't have an account? Register now (free) for customized features, flight alerts, and more!